Orion II — 9HUT9 — position and weather

sailwx.info

Track history (hours):
 
Tides and Currents Weather Stations Pressure Air Temp Water Temp Dewpoint Dewpoint Depression Visibility Wind Speed Wind Dir Waves Ship Positions

Orion II

Last reported at 2017-Oct-16 16:50 UTC. Time now 2017-Oct-18 09:16 UTC.
Position N 36°58' W 008°12'.

Length 88 m; draft 4 m.

MMSI: 249556000.

Date/timePositionNaut miles runAvg speedWind from/ knotsBaromVisibWave heightAir tempDewpointWater temp
2017-Oct-16 16:50N 36°58' W 008°12'411.1
2017-Oct-16 16:30N 36°59' W 008°16'510.4
2017-Oct-16 16:00N 37°01' W 008°22'510.8
2017-Oct-16 15:29N 37°04' W 008°28'4 8.3
2017-Oct-16 15:00N 37°07' W 008°32'1 1.3
2017-Oct-16 14:25N 37°08' W 008°32'0 0.0
2017-Oct-16 13:25N 37°08' W 008°32'0 0.0
2017-Oct-16 12:55N 37°08' W 008°32'0 0.0
2017-Oct-16 12:25N 37°08' W 008°32'0 0.0
2017-Oct-16 11:55N 37°08' W 008°32'0 0.0
2017-Oct-16 11:25N 37°08' W 008°32'0 0.0
2017-Oct-16 10:55N 37°08' W 008°32'0 0.0
2017-Oct-16 10:25N 37°08' W 008°32'0 0.0
2017-Oct-16 09:58N 37°08' W 008°32'0 0.0
2017-Oct-16 09:25N 37°08' W 008°32'0 0.0
2017-Oct-16 08:55N 37°08' W 008°32'0 0.0
2017-Oct-16 08:25N 37°08' W 008°32'0 0.0
2017-Oct-16 07:58N 37°08' W 008°32'0 0.0
2017-Oct-16 07:28N 37°08' W 008°32'0 0.0
2017-Oct-16 06:58N 37°08' W 008°32'0 0.0
2017-Oct-16 06:30N 37°08' W 008°32'1 1.7
2017-Oct-16 06:00N 37°07' W 008°32'4 8.6
2017-Oct-16 05:30N 37°04' W 008°35'5 9.9
2017-Oct-16 05:00N 37°01' W 008°40'510.0
2017-Oct-16 04:30N 36°57' W 008°45'17 9.1
2017-Oct-16 02:39N 36°51' W 009°04'4910.4
2017-Oct-15 21:55N 37°39' W 009°17'512.6
2017-Oct-15 21:30N 37°44' W 009°17'612.3
2017-Oct-15 21:00N 37°50' W 009°18'612.0
2017-Oct-15 20:30N 37°56' W 009°18'612.0
2017-Oct-15 20:00N 38°02' W 009°19'612.1
2017-Oct-15 19:30N 38°08' W 009°20'612.5
2017-Oct-15 19:00N 38°14' W 009°20'612.4
2017-Oct-15 18:30N 38°21' W 009°21'612.3
2017-Oct-15 18:00N 38°27' W 009°22'612.3
2017-Oct-15 17:30N 38°33' W 009°22'611.5
2017-Oct-15 17:00N 38°39' W 009°20'612.9
2017-Oct-15 16:30N 38°41' W 009°13'5 8.3
2017-Oct-15 15:56N 38°43' W 009°07'0 0.0
2017-Oct-15 15:30N 38°43' W 009°07'0 0.0
2017-Oct-15 14:54N 38°43' W 009°07'0 0.0
2017-Oct-15 13:56N 38°43' W 009°07'0 0.0
2017-Oct-15 13:26N 38°43' W 009°07'0 0.0
2017-Oct-15 12:44N 38°43' W 009°07'0 0.0
2017-Oct-15 12:26N 38°43' W 009°07'0 0.0
2017-Oct-15 11:42N 38°43' W 009°07'0 0.0
2017-Oct-15 11:12N 38°43' W 009°07'0 0.0
2017-Oct-15 10:54N 38°43' W 009°07'0 0.0
2017-Oct-15 10:26N 38°43' W 009°07'0 0.0
2017-Oct-15 09:48N 38°43' W 009°07'0 0.0
2017-Oct-15 09:24N 38°43' W 009°07'0 0.0
2017-Oct-15 09:00N 38°43' W 009°07'0 0.0
2017-Oct-15 08:30N 38°43' W 009°07'0 0.0
2017-Oct-15 08:00N 38°43' W 009°07'0 0.0
2017-Oct-15 07:30N 38°43' W 009°07'0 0.0
2017-Oct-15 07:00N 38°43' W 009°07'0 0.4
2017-Oct-15 06:30N 38°43' W 009°07'4 8.4
2017-Oct-15 06:00N 38°41' W 009°13'4 7.5
2017-Oct-15 05:31N 38°41' W 009°17'5 9.2
2017-Oct-15 05:00N 38°38' W 009°22'5 9.0
2017-Oct-15 04:30N 38°33' W 009°22'5 9.5
2017-Oct-15 04:00N 38°29' W 009°23'5 9.7
2017-Oct-15 03:29N 38°23' W 009°22'510.4
2017-Oct-15 03:00N 38°19' W 009°22'5 9.8
2017-Oct-15 02:30N 38°14' W 009°22'5 9.9
2017-Oct-15 02:00N 38°09' W 009°22'510.2
2017-Oct-15 01:30N 38°04' W 009°22'611.0
2017-Oct-15 01:00N 37°58' W 009°22'510.3
2017-Oct-15 00:30N 37°53' W 009°21'510.0
2017-Oct-15 00:00N 37°48' W 009°21'510.4
2017-Oct-14 23:30N 37°43' W 009°21'510.5
2017-Oct-14 23:00N 37°37' W 009°22'511.0
2017-Oct-14 22:30N 37°32' W 009°21'712.4
2017-Oct-14 21:59N 37°25' W 009°21'612.7
2017-Oct-14 21:30N 37°19' W 009°21'712.8
2017-Oct-14 21:00N 37°13' W 009°21'612.3
2017-Oct-14 20:30N 37°07' W 009°21'612.0
2017-Oct-14 20:00N 37°01' W 009°21'611.7
2017-Oct-14 19:27N 36°55' W 009°19'511.3
2017-Oct-14 18:59N 36°50' W 009°15'612.4
2017-Oct-14 18:28N 36°46' W 009°10'612.2
2017-Oct-14 17:58N 36°44' W 009°02'1711.4
2017-Oct-14 16:30N 36°53' W 008°45'612.6
2017-Oct-14 16:00N 36°58' W 008°40'712.5
2017-Oct-14 15:29N 37°03' W 008°35'5 0.6
2017-Oct-14 06:33N 37°08' W 008°32'0 0.0
2017-Oct-14 06:30N 37°08' W 008°32'1 2.5
2017-Oct-14 05:58N 37°06' W 008°32'5 9.5
2017-Oct-14 05:28N 37°04' W 008°27'6 9.7
2017-Oct-14 04:53N 37°01' W 008°21'611.2
2017-Oct-14 04:21N 36°59' W 008°14'511.9
2017-Oct-14 03:53N 36°57' W 008°07'  
2017-Oct-08 04:47N 37°33' W 000°59'4 9.5
2017-Oct-08 04:21N 37°32' W 000°54'3 9.6
2017-Oct-08 04:00N 37°32' W 000°49'5 9.5
2017-Oct-08 03:31N 37°32' W 000°44'5 9.6
2017-Oct-08 03:00N 37°33' W 000°38'510.5
2017-Oct-08 02:31N 37°36' W 000°32'611.1
2017-Oct-08 02:00N 37°40' W 000°28'510.5
2017-Oct-08 01:31N 37°45' W 000°25'167 5.2
2017-Oct-06 17:16N 39°26' E 002°25'311.2
2017-Oct-06 17:00N 39°26' E 002°29'  
Track history (hours):
 
Tides and Currents Weather Stations Pressure Air Temp Water Temp Dewpoint Dewpoint Depression Visibility Wind Speed Wind Dir Waves Ship Positions

Orion II

Last reported at 2017-Oct-16 16:50 UTC. Time now 2017-Oct-18 09:16 UTC.
Position N 36°58' W 008°12'.

Length 88 m; draft 4 m.

MMSI: 249556000.

Date/timePositionNaut miles runAvg speedWind from/ knotsBaromVisibWave heightAir tempDewpointWater temp
2017-Oct-16 16:50N 36°58' W 008°12'411.1
2017-Oct-16 16:30N 36°59' W 008°16'510.4
2017-Oct-16 16:00N 37°01' W 008°22'510.8
2017-Oct-16 15:29N 37°04' W 008°28'4 8.3
2017-Oct-16 15:00N 37°07' W 008°32'1 1.3
2017-Oct-16 14:25N 37°08' W 008°32'0 0.0
2017-Oct-16 13:25N 37°08' W 008°32'0 0.0
2017-Oct-16 12:55N 37°08' W 008°32'0 0.0
2017-Oct-16 12:25N 37°08' W 008°32'0 0.0
2017-Oct-16 11:55N 37°08' W 008°32'0 0.0
2017-Oct-16 11:25N 37°08' W 008°32'0 0.0
2017-Oct-16 10:55N 37°08' W 008°32'0 0.0
2017-Oct-16 10:25N 37°08' W 008°32'0 0.0
2017-Oct-16 09:58N 37°08' W 008°32'0 0.0
2017-Oct-16 09:25N 37°08' W 008°32'0 0.0
2017-Oct-16 08:55N 37°08' W 008°32'0 0.0
2017-Oct-16 08:25N 37°08' W 008°32'0 0.0
2017-Oct-16 07:58N 37°08' W 008°32'0 0.0
2017-Oct-16 07:28N 37°08' W 008°32'0 0.0
2017-Oct-16 06:58N 37°08' W 008°32'0 0.0
2017-Oct-16 06:30N 37°08' W 008°32'1 1.7
2017-Oct-16 06:00N 37°07' W 008°32'4 8.6
2017-Oct-16 05:30N 37°04' W 008°35'5 9.9
2017-Oct-16 05:00N 37°01' W 008°40'510.0
2017-Oct-16 04:30N 36°57' W 008°45'17 9.1
2017-Oct-16 02:39N 36°51' W 009°04'4910.4
2017-Oct-15 21:55N 37°39' W 009°17'512.6
2017-Oct-15 21:30N 37°44' W 009°17'612.3
2017-Oct-15 21:00N 37°50' W 009°18'612.0
2017-Oct-15 20:30N 37°56' W 009°18'612.0
2017-Oct-15 20:00N 38°02' W 009°19'612.1
2017-Oct-15 19:30N 38°08' W 009°20'612.5
2017-Oct-15 19:00N 38°14' W 009°20'612.4
2017-Oct-15 18:30N 38°21' W 009°21'612.3
2017-Oct-15 18:00N 38°27' W 009°22'612.3
2017-Oct-15 17:30N 38°33' W 009°22'611.5
2017-Oct-15 17:00N 38°39' W 009°20'612.9
2017-Oct-15 16:30N 38°41' W 009°13'5 8.3
2017-Oct-15 15:56N 38°43' W 009°07'0 0.0
2017-Oct-15 15:30N 38°43' W 009°07'0 0.0
2017-Oct-15 14:54N 38°43' W 009°07'0 0.0
2017-Oct-15 13:56N 38°43' W 009°07'0 0.0
2017-Oct-15 13:26N 38°43' W 009°07'0 0.0
2017-Oct-15 12:44N 38°43' W 009°07'0 0.0
2017-Oct-15 12:26N 38°43' W 009°07'0 0.0
2017-Oct-15 11:42N 38°43' W 009°07'0 0.0
2017-Oct-15 11:12N 38°43' W 009°07'0 0.0
2017-Oct-15 10:54N 38°43' W 009°07'0 0.0
2017-Oct-15 10:26N 38°43' W 009°07'0 0.0
2017-Oct-15 09:48N 38°43' W 009°07'0 0.0
2017-Oct-15 09:24N 38°43' W 009°07'0 0.0
2017-Oct-15 09:00N 38°43' W 009°07'0 0.0
2017-Oct-15 08:30N 38°43' W 009°07'0 0.0
2017-Oct-15 08:00N 38°43' W 009°07'0 0.0
2017-Oct-15 07:30N 38°43' W 009°07'0 0.0
2017-Oct-15 07:00N 38°43' W 009°07'0 0.4
2017-Oct-15 06:30N 38°43' W 009°07'4 8.4
2017-Oct-15 06:00N 38°41' W 009°13'4 7.5
2017-Oct-15 05:31N 38°41' W 009°17'5 9.2
2017-Oct-15 05:00N 38°38' W 009°22'5 9.0
2017-Oct-15 04:30N 38°33' W 009°22'5 9.5
2017-Oct-15 04:00N 38°29' W 009°23'5 9.7
2017-Oct-15 03:29N 38°23' W 009°22'510.4
2017-Oct-15 03:00N 38°19' W 009°22'5 9.8
2017-Oct-15 02:30N 38°14' W 009°22'5 9.9
2017-Oct-15 02:00N 38°09' W 009°22'510.2
2017-Oct-15 01:30N 38°04' W 009°22'611.0
2017-Oct-15 01:00N 37°58' W 009°22'510.3
2017-Oct-15 00:30N 37°53' W 009°21'510.0
2017-Oct-15 00:00N 37°48' W 009°21'510.4
2017-Oct-14 23:30N 37°43' W 009°21'510.5
2017-Oct-14 23:00N 37°37' W 009°22'511.0
2017-Oct-14 22:30N 37°32' W 009°21'712.4
2017-Oct-14 21:59N 37°25' W 009°21'612.7
2017-Oct-14 21:30N 37°19' W 009°21'712.8
2017-Oct-14 21:00N 37°13' W 009°21'612.3
2017-Oct-14 20:30N 37°07' W 009°21'612.0
2017-Oct-14 20:00N 37°01' W 009°21'611.7
2017-Oct-14 19:27N 36°55' W 009°19'511.3
2017-Oct-14 18:59N 36°50' W 009°15'612.4
2017-Oct-14 18:28N 36°46' W 009°10'612.2
2017-Oct-14 17:58N 36°44' W 009°02'1711.4
2017-Oct-14 16:30N 36°53' W 008°45'612.6
2017-Oct-14 16:00N 36°58' W 008°40'712.5
2017-Oct-14 15:29N 37°03' W 008°35'5 0.6
2017-Oct-14 06:33N 37°08' W 008°32'0 0.0
2017-Oct-14 06:30N 37°08' W 008°32'1 2.5
2017-Oct-14 05:58N 37°06' W 008°32'5 9.5
2017-Oct-14 05:28N 37°04' W 008°27'6 9.7
2017-Oct-14 04:53N 37°01' W 008°21'611.2
2017-Oct-14 04:21N 36°59' W 008°14'511.9
2017-Oct-14 03:53N 36°57' W 008°07'  
2017-Oct-08 04:47N 37°33' W 000°59'4 9.5
2017-Oct-08 04:21N 37°32' W 000°54'3 9.6
2017-Oct-08 04:00N 37°32' W 000°49'5 9.5
2017-Oct-08 03:31N 37°32' W 000°44'5 9.6
2017-Oct-08 03:00N 37°33' W 000°38'510.5
2017-Oct-08 02:31N 37°36' W 000°32'611.1
2017-Oct-08 02:00N 37°40' W 000°28'510.5
2017-Oct-08 01:31N 37°45' W 000°25'167 5.2
2017-Oct-06 17:16N 39°26' E 002°25'311.2
2017-Oct-06 17:00N 39°26' E 002°29'  

Dump ship's entire track history